createdAt,value
2023-02-15T00:07:32.756Z,20.35
2023-02-15T00:10:10.514Z,19.75
2023-02-15T00:12:38.387Z,20.13
2023-02-15T00:15:37.701Z,19.73
2023-02-15T00:23:17.934Z,18.58
2023-02-15T00:29:57.269Z,17.83
2023-02-15T00:37:04.895Z,17.73
2023-02-15T00:39:48.959Z,17.60
2023-02-15T00:42:57.243Z,19.08
2023-02-15T00:45:28.017Z,17.88
2023-02-15T00:51:22.307Z,16.77
2023-02-15T01:00:00.363Z,18.00
2023-02-15T01:02:28.483Z,17.83
2023-02-15T01:04:59.257Z,17.73
2023-02-15T01:07:29.587Z,17.25
2023-02-15T01:10:13.969Z,19.85
2023-02-15T01:13:03.783Z,19.33
2023-02-15T01:15:44.206Z,19.08
2023-02-15T01:18:18.390Z,17.70
2023-02-15T01:20:45.651Z,19.08
2023-02-15T01:23:27.299Z,18.08
2023-02-15T01:26:41.183Z,17.23
2023-02-15T01:29:54.383Z,17.83
2023-02-15T01:32:21.746Z,17.57
2023-02-15T01:34:48.621Z,19.15
2023-02-15T01:37:15.519Z,18.00
2023-02-15T01:42:30.206Z,19.75
2023-02-15T01:45:04.739Z,19.33
2023-02-15T01:50:48.527Z,18.50
2023-02-15T01:53:22.498Z,18.33
2023-02-15T01:56:12.488Z,19.13
2023-02-15T01:58:45.001Z,19.20
2023-02-15T02:01:11.935Z,17.77
2023-02-15T02:03:50.942Z,18.77
2023-02-15T02:06:25.362Z,17.88
2023-02-15T02:08:54.549Z,18.27
2023-02-15T02:11:24.427Z,17.80
2023-02-15T02:13:53.180Z,18.33
2023-02-15T02:16:44.396Z,17.95
2023-02-15T02:19:34.621Z,17.50
2023-02-15T02:22:39.472Z,18.00
2023-02-15T02:25:33.931Z,17.23
2023-02-15T02:28:28.482Z,17.95
2023-02-15T02:31:01.249Z,19.40
2023-02-15T02:33:34.510Z,18.60
2023-02-15T02:36:25.397Z,17.85
2023-02-15T02:39:11.554Z,18.10
2023-02-15T02:41:39.376Z,18.95
2023-02-15T02:44:20.370Z,19.05
2023-02-15T02:47:03.333Z,17.52
2023-02-15T02:49:35.837Z,17.88
2023-02-15T02:52:07.223Z,18.00
2023-02-15T02:54:37.292Z,18.67
2023-02-15T02:57:10.339Z,17.52
2023-02-15T02:59:43.594Z,18.50
2023-02-15T03:02:18.982Z,17.27
2023-02-15T03:04:50.750Z,17.97
2023-02-15T03:07:25.373Z,17.17
2023-02-15T03:09:56.688Z,17.80
2023-02-15T03:12:40.259Z,17.92
2023-02-15T03:15:50.439Z,17.85
2023-02-15T03:18:23.751Z,17.43
2023-02-15T03:20:56.622Z,17.50
2023-02-15T03:23:26.895Z,18.02
2023-02-15T03:26:02.410Z,17.48
2023-02-15T03:28:52.103Z,18.30
2023-02-15T03:31:23.436Z,16.73
2023-02-15T03:34:00.183Z,17.52
2023-02-15T03:37:01.599Z,17.50
2023-02-15T03:39:38.834Z,16.67
2023-02-15T03:42:29.277Z,16.88
2023-02-15T03:44:59.174Z,17.30
2023-02-15T03:47:32.515Z,16.42
2023-02-15T03:50:26.061Z,17.88
2023-02-15T03:52:56.295Z,17.17
2023-02-15T03:55:23.129Z,17.65
2023-02-15T03:58:08.638Z,16.93
2023-02-15T04:00:57.178Z,18.35
2023-02-15T04:03:44.886Z,16.85
2023-02-15T04:06:11.547Z,15.52
2023-02-15T04:08:58.572Z,16.08
2023-02-15T04:11:25.215Z,15.87
2023-02-15T04:13:57.467Z,18.17
2023-02-15T04:16:28.782Z,16.27
2023-02-15T04:19:14.834Z,18.05
2023-02-15T04:21:59.772Z,16.98
2023-02-15T04:24:44.865Z,18.30
2023-02-15T04:27:11.443Z,17.10
2023-02-15T04:29:37.936Z,16.65
2023-02-15T04:32:04.693Z,18.83
2023-02-15T04:34:31.432Z,17.42
2023-02-15T04:36:58.108Z,16.73
2023-02-15T04:39:24.712Z,17.55
2023-02-15T04:41:51.451Z,19.15
2023-02-15T04:44:18.176Z,16.77
2023-02-15T04:46:45.207Z,16.58
2023-02-15T04:49:12.223Z,17.47
2023-02-15T04:51:39.353Z,16.73
2023-02-15T04:54:06.224Z,17.15
2023-02-15T04:56:34.854Z,16.70
2023-02-15T04:59:02.069Z,18.33
2023-02-15T05:01:36.477Z,17.23
2023-02-15T05:04:06.560Z,18.10
2023-02-15T08:10:44.670Z,18.67
2023-02-15T08:13:11.290Z,18.58
2023-02-15T08:15:43.988Z,19.90
2023-02-15T08:18:44.301Z,20.35
2023-02-15T08:21:15.870Z,20.83
2023-02-15T08:33:06.560Z,22.02
2023-02-15T08:35:50.167Z,22.73
2023-02-15T08:38:23.159Z,23.15
2023-02-15T08:41:00.376Z,22.83
2023-02-15T08:43:50.742Z,24.23
2023-02-15T08:46:28.640Z,23.77
2023-02-15T08:49:27.598Z,23.43
2023-02-15T08:52:45.231Z,26.02
2023-02-15T08:56:27.898Z,24.45
2023-02-15T08:58:48.619Z,23.17
2023-02-15T09:01:41.518Z,25.83
2023-02-15T09:04:59.071Z,25.00
2023-02-15T09:07:36.262Z,26.25
2023-02-15T09:10:17.608Z,26.15
2023-02-15T09:13:05.247Z,26.77
2023-02-15T09:15:40.565Z,29.52
2023-02-15T09:18:18.252Z,28.23
2023-02-15T09:20:49.079Z,30.13
2023-02-15T09:23:30.851Z,29.95
2023-02-15T09:26:30.286Z,29.23
2023-02-15T09:32:01.298Z,29.33
2023-02-15T09:43:38.125Z,28.35
2023-02-15T09:49:49.712Z,29.20
2023-02-15T09:52:28.958Z,30.42
2023-02-15T09:55:20.121Z,31.30
2023-02-15T09:58:21.545Z,29.25
2023-02-15T10:01:05.484Z,28.10
2023-02-15T10:03:53.809Z,29.90
2023-02-15T10:06:20.961Z,29.08
2023-02-15T10:09:07.475Z,27.90
2023-02-15T10:11:52.890Z,23.98
2023-02-15T10:14:22.386Z,24.58
2023-02-15T10:17:39.118Z,25.77
2023-02-15T10:20:12.374Z,20.35
2023-02-15T10:22:52.972Z,18.38
2023-02-15T10:26:02.133Z,18.38
2023-02-15T10:28:49.788Z,16.67
2023-02-15T10:31:25.989Z,15.73
2023-02-15T10:34:10.333Z,15.43
2023-02-15T10:37:12.983Z,15.32
2023-02-15T10:40:45.045Z,15.15
2023-02-15T10:43:49.006Z,15.00
2023-02-15T10:46:27.810Z,15.13
2023-02-15T10:49:12.530Z,14.65
2023-02-15T10:51:54.200Z,14.48
2023-02-15T10:54:44.659Z,13.57
2023-02-15T10:57:12.162Z,11.50
2023-02-15T11:00:07.903Z,10.73
2023-02-15T11:17:53.374Z,13.57
2023-02-15T11:20:36.218Z,14.10
2023-02-15T11:23:17.053Z,12.60
2023-02-15T11:25:49.810Z,13.68
2023-02-15T11:28:45.386Z,14.93
2023-02-15T11:31:18.646Z,13.50
2023-02-15T11:33:54.525Z,14.75
2023-02-15T11:36:28.724Z,13.45
2023-02-15T11:39:13.596Z,10.40
2023-02-15T11:41:45.313Z,12.10
2023-02-15T11:44:11.817Z,10.47
2023-02-15T11:46:38.838Z,13.95
2023-02-15T11:49:23.758Z,11.70
2023-02-15T11:51:52.296Z,12.60
2023-02-15T11:54:30.261Z,12.57
2023-02-15T11:57:10.066Z,12.57
2023-02-15T11:59:38.873Z,12.13
2023-02-15T12:02:20.668Z,11.77
2023-02-15T12:05:11.680Z,9.75
2023-02-15T12:07:58.195Z,10.20
2023-02-15T12:10:28.830Z,10.17
2023-02-15T12:13:17.845Z,9.90
2023-02-15T12:16:15.852Z,10.02
2023-02-15T12:18:49.993Z,7.85
2023-02-15T12:21:33.327Z,10.10
2023-02-15T12:24:23.779Z,10.40
2023-02-15T12:27:02.010Z,10.27
2023-02-15T12:29:45.614Z,9.23
2023-02-15T12:32:30.732Z,10.18
2023-02-15T12:35:07.941Z,9.80
2023-02-15T12:37:35.996Z,10.10
2023-02-15T12:40:20.764Z,10.68
2023-02-15T12:42:47.822Z,10.88
2023-02-15T12:45:22.400Z,9.82
2023-02-15T12:48:18.687Z,10.20
2023-02-15T12:51:09.134Z,8.40
2023-02-15T12:53:37.553Z,7.85
2023-02-15T12:56:07.494Z,8.48
2023-02-15T12:58:46.177Z,8.20
2023-02-15T13:01:20.512Z,8.10
2023-02-15T13:04:16.079Z,7.43
2023-02-15T13:06:53.840Z,6.60
2023-02-15T13:09:41.294Z,8.25
2023-02-15T13:12:33.108Z,8.13
2023-02-15T13:15:00.257Z,7.90
2023-02-15T13:17:33.067Z,6.43
2023-02-15T13:20:20.393Z,7.00
2023-02-15T13:22:51.900Z,5.90
2023-02-15T13:25:29.461Z,5.65
2023-02-15T13:28:05.474Z,6.78
2023-02-15T13:30:40.618Z,5.67
2023-02-15T13:33:40.659Z,6.20
2023-02-15T13:36:18.947Z,5.68
2023-02-15T13:39:34.898Z,5.90
2023-02-15T13:42:23.263Z,6.07
2023-02-15T13:45:19.473Z,5.50
2023-02-15T13:47:46.374Z,6.43
2023-02-15T13:50:56.596Z,5.72
2023-02-15T13:54:08.920Z,5.75
2023-02-15T13:57:07.988Z,5.18
2023-02-15T13:59:50.045Z,5.03
2023-02-15T14:02:41.676Z,4.50
2023-02-15T14:05:30.107Z,4.75
2023-02-15T14:08:16.002Z,4.28
2023-02-15T14:11:39.501Z,4.97
2023-02-15T14:18:03.472Z,4.45
2023-02-15T14:24:09.747Z,4.38
2023-02-15T14:26:48.810Z,3.05
2023-02-15T14:29:51.928Z,4.10
2023-02-15T14:35:45.877Z,3.63
2023-02-15T14:38:44.269Z,4.15
2023-02-15T14:41:45.456Z,4.57
2023-02-15T14:44:48.639Z,4.40
2023-02-15T14:47:37.346Z,4.65
2023-02-15T14:50:47.056Z,4.88
2023-02-15T14:53:33.183Z,4.05
2023-02-15T14:56:46.776Z,4.50
2023-02-15T15:02:12.292Z,4.50
2023-02-15T15:05:39.500Z,4.63
2023-02-15T15:08:27.877Z,3.92
2023-02-15T15:11:42.938Z,5.10
2023-02-15T15:14:44.765Z,4.70
2023-02-15T15:17:36.359Z,4.97
2023-02-15T15:20:37.622Z,4.45
2023-02-15T15:23:16.514Z,4.55
2023-02-15T15:25:49.184Z,5.22
2023-02-15T15:28:39.829Z,4.70
2023-02-15T15:31:41.931Z,4.50
2023-02-15T15:35:02.284Z,4.15
2023-02-15T15:38:43.911Z,4.78
2023-02-15T15:41:45.369Z,4.88
2023-02-15T15:44:54.567Z,4.30
2023-02-15T15:51:34.255Z,3.90
2023-02-15T15:54:05.097Z,3.78
2023-02-15T15:57:19.481Z,4.55
2023-02-15T15:59:49.493Z,3.80
2023-02-15T16:02:20.889Z,4.03
2023-02-15T16:05:08.074Z,4.07
2023-02-15T16:07:37.624Z,4.60
2023-02-15T16:10:22.288Z,4.10
2023-02-15T16:13:02.781Z,4.20
2023-02-15T16:15:45.660Z,5.10
2023-02-15T16:18:46.153Z,4.35
2023-02-15T16:21:49.031Z,4.95
2023-02-15T16:25:02.625Z,4.30
2023-02-15T16:27:48.122Z,4.77
2023-02-15T16:30:40.800Z,4.07
2023-02-15T16:33:21.362Z,4.25
2023-02-15T16:35:59.617Z,4.13
2023-02-15T16:38:50.888Z,5.13
2023-02-15T16:41:28.204Z,5.03
2023-02-15T16:44:02.491Z,4.18
2023-02-15T16:46:36.709Z,5.03
2023-02-15T16:49:09.912Z,4.95
2023-02-15T16:51:58.295Z,5.25
2023-02-15T16:54:45.249Z,5.13
2023-02-15T16:58:09.596Z,4.25
2023-02-15T17:01:18.222Z,4.10
2023-02-15T17:03:54.297Z,4.03
2023-02-15T17:06:41.052Z,4.60
2023-02-15T17:14:12.609Z,4.60
2023-02-15T17:17:10.598Z,4.82
2023-02-15T17:19:55.202Z,4.82
2023-02-15T17:22:43.759Z,4.78
2023-02-15T17:25:54.249Z,4.60
2023-02-15T17:28:32.000Z,4.55
2023-02-15T17:31:09.885Z,4.93
2023-02-15T17:33:47.196Z,4.75
2023-02-15T17:39:37.381Z,5.63
2023-02-15T17:42:35.976Z,6.55
2023-02-15T17:45:23.145Z,6.60
2023-02-15T17:48:06.651Z,6.80
2023-02-15T17:50:46.394Z,6.32
2023-02-15T17:53:33.802Z,5.77
2023-02-15T17:56:32.438Z,6.18
2023-02-15T17:59:16.946Z,5.78
2023-02-15T18:02:22.077Z,6.43
2023-02-15T18:05:23.095Z,6.28
2023-02-15T18:08:19.140Z,6.33
2023-02-15T18:11:17.796Z,5.47
2023-02-15T18:14:13.200Z,6.05
2023-02-15T18:16:55.860Z,6.68
2023-02-15T18:19:31.051Z,6.32
2023-02-15T18:22:24.642Z,6.70
2023-02-15T18:24:56.667Z,6.82
2023-02-15T18:27:52.814Z,7.18
2023-02-15T18:31:29.719Z,7.10
2023-02-15T18:37:37.852Z,7.07
2023-02-15T18:40:11.276Z,7.15
2023-02-15T18:42:46.891Z,7.78
2023-02-15T18:45:32.658Z,7.40
2023-02-15T18:48:45.275Z,6.95
2023-02-15T18:54:23.569Z,7.13
2023-02-15T18:57:26.557Z,7.63
2023-02-15T18:59:54.693Z,7.60
2023-02-15T19:02:52.993Z,8.52
2023-02-15T19:11:20.300Z,7.57
2023-02-15T19:13:53.280Z,7.70
2023-02-15T19:16:37.618Z,8.27
2023-02-15T19:19:07.264Z,7.63
2023-02-15T19:21:44.673Z,7.65
2023-02-15T19:24:49.986Z,9.40
2023-02-15T19:27:43.139Z,8.70
2023-02-15T19:33:32.128Z,9.20
2023-02-15T19:36:02.600Z,8.50
2023-02-15T19:38:37.242Z,8.57
2023-02-15T19:41:13.535Z,9.15
2023-02-15T19:43:41.609Z,9.85
2023-02-15T19:46:29.963Z,8.57
2023-02-15T19:48:56.689Z,8.32
2023-02-15T19:51:47.658Z,9.05
2023-02-15T19:56:19.168Z,9.80
2023-02-15T19:58:21.733Z,10.38
2023-02-15T20:01:05.304Z,8.50
2023-02-15T20:04:09.521Z,9.35
2023-02-15T20:07:00.974Z,10.48
2023-02-15T20:09:41.334Z,10.23
2023-02-15T20:12:20.906Z,11.20
2023-02-15T20:14:52.949Z,9.97
2023-02-15T20:17:49.486Z,9.90
2023-02-15T20:20:23.777Z,10.80
2023-02-15T20:22:58.066Z,10.32
2023-02-15T20:25:49.183Z,10.10
2023-02-15T20:28:24.400Z,11.23
2023-02-15T20:30:55.538Z,10.38
2023-02-15T20:33:38.878Z,11.38
2023-02-15T20:36:46.821Z,11.02
2023-02-15T20:39:20.570Z,10.38
2023-02-15T20:42:21.801Z,10.63
2023-02-15T20:44:53.100Z,11.50
2023-02-15T20:47:55.855Z,12.27
2023-02-15T20:53:36.593Z,10.32
2023-02-15T20:56:20.858Z,10.50
2023-02-15T21:01:47.708Z,10.80
2023-02-15T21:04:46.214Z,12.15
2023-02-15T21:07:26.951Z,11.43
2023-02-15T21:09:56.770Z,10.93
2023-02-15T21:12:24.738Z,11.30
2023-02-15T21:14:51.483Z,10.93
2023-02-15T21:20:46.856Z,10.05
2023-02-15T21:23:29.483Z,10.40
2023-02-15T21:26:11.919Z,10.20
2023-02-15T21:29:08.607Z,10.15
2023-02-15T21:32:08.291Z,10.20
2023-02-15T21:48:01.002Z,8.35
2023-02-15T21:51:08.553Z,10.45
2023-02-15T21:53:56.404Z,10.88
2023-02-15T22:04:59.116Z,11.90
2023-02-15T22:06:52.556Z,11.65
2023-02-15T22:09:55.569Z,10.77
2023-02-15T22:16:14.750Z,11.02
2023-02-15T22:19:20.476Z,12.35
2023-02-15T22:22:37.371Z,12.65
2023-02-15T22:39:36.217Z,4.25
2023-02-15T22:58:47.195Z,4.00
2023-02-15T23:01:32.490Z,3.85
2023-02-15T23:09:11.596Z,4.03
2023-02-15T23:12:05.777Z,3.72
2023-02-15T23:14:38.820Z,3.83
2023-02-15T23:17:05.535Z,4.60
2023-02-15T23:22:58.404Z,4.80
2023-02-15T23:25:41.580Z,4.55
2023-02-15T23:32:29.724Z,4.72
2023-02-15T23:35:25.276Z,4.93
2023-02-15T23:38:10.249Z,5.50
2023-02-15T23:41:08.101Z,4.70
2023-02-15T23:43:51.934Z,4.93
2023-02-15T23:47:04.042Z,3.90
2023-02-15T23:49:36.730Z,4.60
2023-02-15T23:52:32.296Z,3.90
2023-02-15T23:55:02.066Z,4.10
2023-02-15T23:57:29.963Z,3.72
